createdAt,value
2023-02-14T00:01:26.617Z,7.20
2023-02-14T00:03:54.698Z,6.93
2023-02-14T00:06:22.341Z,7.00
2023-02-14T00:08:52.326Z,7.93
2023-02-14T00:11:20.652Z,6.30
2023-02-14T00:14:07.331Z,6.78
2023-02-14T00:19:05.422Z,6.72
2023-02-14T00:21:36.367Z,6.45
2023-02-14T00:24:06.064Z,7.38
2023-02-14T00:26:34.438Z,7.15
2023-02-14T00:29:02.196Z,7.40
2023-02-14T00:31:30.448Z,6.68
2023-02-14T00:33:58.167Z,7.40
2023-02-14T00:36:26.593Z,6.97
2023-02-14T00:38:54.171Z,7.28
2023-02-14T00:41:22.662Z,6.85
2023-02-14T00:43:54.791Z,7.15
2023-02-14T00:46:24.564Z,7.32
2023-02-14T00:48:53.011Z,7.70
2023-02-14T00:51:21.853Z,7.78
2023-02-14T00:53:51.535Z,7.25
2023-02-14T00:56:20.299Z,8.05
2023-02-14T00:58:48.223Z,7.85
2023-02-14T01:01:19.310Z,7.85
2023-02-14T01:03:47.500Z,8.25
2023-02-14T01:06:15.743Z,8.30
2023-02-14T01:08:43.392Z,8.68
2023-02-14T01:11:13.700Z,7.75
2023-02-14T01:13:41.512Z,8.93
2023-02-14T01:16:12.453Z,8.55
2023-02-14T01:18:41.304Z,8.50
2023-02-14T01:21:23.382Z,8.93
2023-02-14T01:23:53.179Z,8.65
2023-02-14T01:26:23.127Z,8.13
2023-02-14T01:28:51.219Z,9.57
2023-02-14T01:31:24.162Z,9.38
2023-02-14T01:33:52.467Z,9.02
2023-02-14T01:36:24.593Z,9.23
2023-02-14T01:38:56.774Z,9.38
2023-02-14T01:41:25.928Z,8.80
2023-02-14T01:44:04.134Z,9.70
2023-02-14T01:46:37.517Z,9.77
2023-02-14T01:49:20.513Z,9.68
2023-02-14T01:52:11.841Z,9.25
2023-02-14T01:54:46.277Z,9.90
2023-02-14T01:57:18.288Z,9.93
2023-02-14T01:59:53.588Z,10.18
2023-02-14T02:02:23.962Z,10.00
2023-02-14T02:04:55.757Z,9.45
2023-02-14T02:07:29.321Z,10.30
2023-02-14T02:10:02.762Z,9.55
2023-02-14T02:12:31.113Z,10.73
2023-02-14T02:15:00.071Z,10.35
2023-02-14T02:17:38.235Z,10.13
2023-02-14T02:20:42.186Z,10.27
2023-02-14T02:23:17.954Z,10.82
2023-02-14T02:26:07.403Z,10.73
2023-02-14T02:28:44.277Z,10.65
2023-02-14T02:31:20.329Z,10.77
2023-02-14T02:34:22.892Z,11.15
2023-02-14T02:37:11.987Z,10.32
2023-02-14T02:40:16.677Z,11.07
2023-02-14T02:43:15.378Z,11.93
2023-02-14T02:46:30.583Z,11.52
2023-02-14T02:49:41.897Z,11.38
2023-02-14T02:53:00.893Z,13.70
2023-02-14T02:56:21.792Z,11.38
2023-02-14T02:59:06.706Z,11.48
2023-02-14T03:01:38.129Z,13.43
2023-02-14T03:04:29.644Z,11.75
2023-02-14T03:07:00.697Z,12.10
2023-02-14T03:09:29.558Z,11.98
2023-02-14T03:12:34.610Z,12.50
2023-02-14T03:15:30.335Z,11.52
2023-02-14T03:18:03.833Z,11.20
2023-02-14T03:20:49.710Z,11.32
2023-02-14T03:23:30.441Z,13.25
2023-02-14T03:26:14.705Z,11.13
2023-02-14T03:28:57.694Z,12.25
2023-02-14T03:31:36.471Z,12.13
2023-02-14T03:34:25.109Z,11.80
2023-02-14T03:37:12.527Z,11.25
2023-02-14T03:40:02.092Z,12.32
2023-02-14T03:42:45.907Z,12.32
2023-02-14T03:45:22.559Z,13.00
2023-02-14T03:47:51.643Z,12.80
2023-02-14T03:50:20.711Z,13.02
2023-02-14T03:52:53.515Z,13.35
2023-02-14T03:55:39.358Z,12.75
2023-02-14T03:58:13.034Z,12.82
2023-02-14T04:00:43.673Z,11.68
2023-02-14T04:03:15.236Z,13.35
2023-02-14T04:05:46.770Z,13.35
2023-02-14T04:08:22.751Z,12.88
2023-02-14T04:10:52.585Z,14.07
2023-02-14T04:13:21.146Z,13.23
2023-02-14T04:15:48.928Z,13.82
2023-02-14T04:18:35.313Z,14.05
2023-02-14T04:21:02.891Z,13.65
2023-02-14T04:23:30.785Z,13.65
2023-02-14T04:25:58.597Z,12.70
2023-02-14T04:28:26.430Z,13.32
2023-02-14T04:30:54.007Z,13.65
2023-02-14T04:33:22.063Z,13.63
2023-02-14T04:35:49.996Z,12.82
2023-02-14T04:38:17.784Z,14.75
2023-02-14T04:40:45.452Z,13.75
2023-02-14T04:43:13.306Z,13.90
2023-02-14T04:45:40.956Z,13.93
2023-02-14T04:48:08.896Z,14.38
2023-02-14T04:50:36.569Z,13.93
2023-02-14T04:53:04.398Z,14.25
2023-02-14T04:55:31.987Z,14.80
2023-02-14T04:57:59.769Z,14.18
2023-02-14T05:00:27.458Z,13.80
2023-02-14T05:02:55.376Z,16.15
2023-02-14T05:05:22.987Z,15.98
2023-02-14T05:07:50.816Z,14.88
2023-02-14T05:10:18.554Z,14.60
2023-02-14T05:12:46.387Z,14.00
2023-02-14T05:15:13.943Z,14.73
2023-02-14T05:17:41.799Z,14.23
2023-02-14T05:20:10.071Z,13.70
2023-02-14T05:22:38.039Z,13.77
2023-02-14T05:25:05.876Z,15.18
2023-02-14T05:27:33.701Z,15.20
2023-02-14T05:30:01.247Z,15.48
2023-02-14T05:32:29.251Z,15.48
2023-02-14T05:34:56.855Z,16.48
2023-02-14T05:37:24.668Z,15.25
2023-02-14T05:39:52.263Z,15.95
2023-02-14T05:42:20.122Z,15.88
2023-02-14T05:44:48.761Z,15.30
2023-02-14T05:47:16.559Z,14.77
2023-02-14T05:49:44.042Z,16.33
2023-02-14T05:52:11.991Z,16.23
2023-02-14T05:54:39.500Z,14.70
2023-02-14T05:57:07.481Z,15.13
2023-02-14T05:59:35.029Z,14.43
2023-02-14T06:02:02.971Z,15.13
2023-02-14T06:04:30.692Z,15.25
2023-02-14T06:06:58.666Z,14.95
2023-02-14T06:09:26.258Z,15.93
2023-02-14T06:11:55.373Z,14.48
2023-02-14T06:14:23.037Z,15.55
2023-02-14T06:16:50.980Z,14.55
2023-02-14T06:19:18.616Z,14.25
2023-02-14T06:21:46.923Z,15.77
2023-02-14T06:24:14.764Z,14.93
2023-02-14T06:26:42.797Z,14.73
2023-02-14T06:29:10.474Z,14.90
2023-02-14T06:31:38.491Z,14.93
2023-02-14T06:34:06.196Z,15.00
2023-02-14T06:36:34.293Z,15.35
2023-02-14T06:39:01.880Z,15.60
2023-02-14T06:41:29.979Z,15.27
2023-02-14T06:43:57.561Z,16.33
2023-02-14T06:46:25.995Z,13.90
2023-02-14T06:48:53.527Z,15.05
2023-02-14T06:51:21.310Z,14.23
2023-02-14T06:53:48.835Z,14.48
2023-02-14T06:56:16.624Z,13.85
2023-02-14T06:58:44.234Z,15.13
2023-02-14T07:01:12.243Z,14.55
2023-02-14T07:03:39.946Z,13.57
2023-02-14T07:06:07.896Z,14.35
2023-02-14T07:08:35.419Z,15.00
2023-02-14T07:11:03.485Z,14.77
2023-02-14T07:13:31.164Z,14.68
2023-02-14T07:15:59.095Z,16.02
2023-02-14T07:18:26.830Z,14.10
2023-02-14T07:20:54.667Z,15.13
2023-02-14T07:23:22.377Z,15.52
2023-02-14T07:25:50.365Z,15.55
2023-02-14T07:28:17.997Z,15.48
2023-02-14T07:30:46.028Z,15.05
2023-02-14T07:33:13.890Z,14.40
2023-02-14T07:35:41.718Z,15.00
2023-02-14T07:38:09.545Z,14.95
2023-02-14T07:40:37.373Z,14.23
2023-02-14T07:43:04.940Z,14.68
2023-02-14T07:45:32.840Z,15.18
2023-02-14T07:48:02.282Z,14.20
2023-02-14T07:50:30.512Z,14.32
2023-02-14T07:52:58.075Z,14.70
2023-02-14T07:55:25.911Z,15.05
2023-02-14T07:57:53.788Z,14.18
2023-02-14T08:00:22.380Z,14.27
2023-02-14T08:02:50.140Z,15.07
2023-02-14T08:05:18.691Z,14.52
2023-02-14T08:07:50.472Z,14.13
2023-02-14T08:10:18.539Z,14.63
2023-02-14T08:13:01.229Z,14.70
2023-02-14T08:15:50.318Z,14.18
2023-02-14T08:18:19.049Z,14.70
2023-02-14T08:20:50.721Z,14.15
2023-02-14T08:23:20.001Z,14.68
2023-02-14T08:25:51.804Z,14.27
2023-02-14T08:28:22.160Z,14.05
2023-02-14T08:30:50.980Z,14.57
2023-02-14T08:33:19.427Z,15.57
2023-02-14T08:35:47.566Z,15.13
2023-02-14T08:38:15.186Z,13.93
2023-02-14T08:40:43.402Z,13.82
2023-02-14T08:43:11.672Z,13.85
2023-02-14T08:45:40.364Z,13.38
2023-02-14T08:48:11.144Z,12.07
2023-02-14T08:50:39.984Z,14.00
2023-02-14T08:53:10.169Z,13.10
2023-02-14T08:55:40.150Z,13.50
2023-02-14T08:58:08.237Z,12.60
2023-02-14T09:00:36.229Z,13.73
2023-02-14T09:03:04.036Z,12.68
2023-02-14T09:05:33.331Z,13.98
2023-02-14T09:08:03.278Z,13.20
2023-02-14T09:10:31.515Z,13.18
2023-02-14T09:12:59.159Z,13.88
2023-02-14T09:15:27.047Z,13.10
2023-02-14T09:17:54.830Z,14.00
2023-02-14T09:20:22.839Z,12.98
2023-02-14T09:22:50.539Z,13.25
2023-02-14T09:25:18.438Z,13.63
2023-02-14T09:27:46.058Z,13.85
2023-02-14T09:30:14.649Z,14.32
2023-02-14T09:32:42.536Z,14.18
2023-02-14T09:35:10.332Z,13.18
2023-02-14T09:37:37.933Z,13.20
2023-02-14T09:40:06.578Z,13.52
2023-02-14T09:42:53.206Z,13.48
2023-02-14T09:45:25.379Z,13.32
2023-02-14T09:48:32.230Z,14.38
2023-02-14T09:51:11.906Z,14.73
2023-02-14T09:54:04.813Z,13.40
2023-02-14T09:56:54.373Z,12.43
2023-02-14T09:59:34.436Z,12.45
2023-02-14T10:02:34.552Z,10.32
2023-02-14T10:05:32.355Z,10.82
2023-02-14T10:08:06.154Z,12.30
2023-02-14T10:10:45.519Z,12.30
2023-02-14T10:13:46.349Z,13.32
2023-02-14T10:16:13.855Z,12.77
2023-02-14T10:18:49.960Z,11.95
2023-02-14T10:21:33.815Z,19.63
2023-02-14T10:24:16.278Z,14.82
2023-02-14T10:26:45.410Z,15.30
2023-02-14T10:29:18.358Z,17.00
2023-02-14T10:31:58.104Z,16.42
2023-02-14T10:35:00.726Z,15.30
2023-02-14T10:38:10.314Z,15.23
2023-02-14T10:40:47.023Z,16.95
2023-02-14T10:43:20.167Z,17.75
2023-02-14T10:46:29.859Z,14.70
2023-02-14T10:49:24.734Z,16.00
2023-02-14T10:52:15.471Z,16.20
2023-02-14T10:54:50.944Z,15.38
2023-02-14T10:57:31.275Z,16.70
2023-02-14T11:00:07.195Z,20.90
2023-02-14T11:02:41.319Z,23.98
2023-02-14T11:07:45.519Z,17.67
2023-02-14T11:10:15.950Z,17.75
2023-02-14T11:12:43.869Z,16.40
2023-02-14T11:15:20.723Z,17.50
2023-02-14T11:17:48.891Z,16.83
2023-02-14T11:20:20.012Z,16.27
2023-02-14T11:22:47.945Z,14.82
2023-02-14T11:25:23.017Z,15.27
2023-02-14T11:28:03.561Z,15.63
2023-02-14T11:30:42.931Z,14.70
2023-02-14T11:33:43.286Z,15.38
2023-02-14T11:36:14.752Z,14.48
2023-02-14T11:38:54.471Z,15.77
2023-02-14T11:41:24.452Z,13.82
2023-02-14T11:44:09.483Z,14.60
2023-02-14T11:46:52.305Z,13.27
2023-02-14T11:49:27.572Z,13.73
2023-02-14T11:51:57.107Z,15.02
2023-02-14T11:54:30.634Z,15.65
2023-02-14T11:57:17.464Z,15.40
2023-02-14T11:59:48.516Z,14.57
2023-02-14T12:02:32.637Z,14.70
2023-02-14T12:05:07.019Z,14.68
2023-02-14T12:07:38.008Z,14.40
2023-02-14T12:10:33.477Z,14.55
2023-02-14T12:13:26.038Z,15.02
2023-02-14T12:15:56.524Z,14.85
2023-02-14T12:18:39.311Z,14.77
2023-02-14T12:21:12.853Z,15.25
2023-02-14T12:23:56.817Z,15.45
2023-02-14T12:26:43.633Z,15.48
2023-02-14T12:29:34.300Z,14.15
2023-02-14T12:32:18.353Z,14.60
2023-02-14T12:34:46.057Z,15.25
2023-02-14T12:37:27.470Z,15.57
2023-02-14T12:40:16.193Z,16.23
2023-02-14T12:43:20.588Z,15.43
2023-02-14T12:45:49.030Z,14.70
2023-02-14T12:48:33.492Z,15.13
2023-02-14T12:51:19.244Z,15.32
2023-02-14T12:53:49.729Z,15.05
2023-02-14T12:56:33.612Z,14.27
2023-02-14T12:59:23.170Z,14.75
2023-02-14T13:01:55.354Z,16.08
2023-02-14T13:04:46.741Z,16.80
2023-02-14T13:07:26.799Z,16.33
2023-02-14T13:10:14.635Z,15.55
2023-02-14T13:13:04.626Z,17.27
2023-02-14T13:15:46.602Z,16.25
2023-02-14T13:18:36.159Z,16.25
2023-02-14T13:21:08.433Z,15.60
2023-02-14T13:23:45.332Z,15.93
2023-02-14T13:26:31.338Z,15.40
2023-02-14T13:29:11.075Z,14.98
2023-02-14T13:31:40.426Z,15.15
2023-02-14T13:34:29.385Z,15.43
2023-02-14T13:37:00.693Z,14.02
2023-02-14T13:39:59.424Z,16.13
2023-02-14T13:42:49.913Z,16.17
2023-02-14T13:45:34.873Z,15.70
2023-02-14T13:48:09.035Z,15.52
2023-02-14T13:50:40.875Z,15.40
2023-02-14T13:53:29.286Z,16.70
2023-02-14T13:55:57.280Z,16.38
2023-02-14T13:58:25.789Z,16.48
2023-02-14T14:00:54.743Z,16.67
2023-02-14T14:03:28.926Z,16.70
2023-02-14T14:06:11.111Z,21.25
2023-02-14T14:08:42.285Z,16.55
2023-02-14T14:11:22.202Z,15.00
2023-02-14T14:13:58.935Z,16.60
2023-02-14T14:16:26.794Z,15.68
2023-02-14T14:18:54.812Z,15.82
2023-02-14T14:21:46.259Z,16.60
2023-02-14T14:24:27.761Z,15.82
2023-02-14T14:27:17.548Z,14.88
2023-02-14T14:29:47.216Z,15.73
2023-02-14T14:32:36.324Z,16.13
2023-02-14T14:35:12.509Z,15.52
2023-02-14T14:37:55.530Z,16.15
2023-02-14T14:40:37.447Z,17.05
2023-02-14T14:43:31.413Z,21.00
2023-02-14T14:46:02.331Z,17.42
2023-02-14T14:48:54.967Z,17.35
2023-02-14T14:51:32.225Z,15.30
2023-02-14T14:54:02.391Z,15.80
2023-02-14T14:56:34.280Z,15.98
2023-02-14T14:59:26.802Z,24.05
2023-02-14T15:01:55.392Z,16.83
2023-02-14T15:04:29.512Z,16.55
2023-02-14T15:07:17.438Z,19.83
2023-02-14T15:09:45.040Z,18.77
2023-02-14T15:12:35.036Z,18.15
2023-02-14T15:15:04.473Z,18.60
2023-02-14T15:17:33.473Z,17.40
2023-02-14T15:20:05.579Z,18.10
2023-02-14T15:22:48.200Z,17.33
2023-02-14T15:25:21.857Z,16.17
2023-02-14T15:27:50.572Z,18.95
2023-02-14T15:30:34.776Z,19.67
2023-02-14T15:33:04.914Z,19.17
2023-02-14T15:35:42.173Z,18.75
2023-02-14T15:38:12.117Z,18.90
2023-02-14T15:40:40.420Z,19.13
2023-02-14T15:43:32.022Z,17.20
2023-02-14T15:46:24.018Z,17.83
2023-02-14T15:48:53.038Z,18.10
2023-02-14T15:51:24.743Z,18.25
2023-02-14T15:53:59.424Z,18.63
2023-02-14T15:56:30.399Z,18.30
2023-02-14T15:59:07.139Z,20.20
2023-02-14T16:01:36.473Z,20.33
2023-02-14T16:04:06.990Z,21.58
2023-02-14T16:06:44.450Z,33.15
2023-02-14T16:09:31.074Z,32.50
2023-02-14T16:11:58.646Z,39.70
2023-02-14T16:14:32.521Z,38.38
2023-02-14T16:17:06.824Z,31.33
2023-02-14T16:19:41.583Z,34.28
2023-02-14T16:22:24.432Z,26.52
2023-02-14T16:24:52.313Z,23.45
2023-02-14T16:27:19.884Z,26.65
2023-02-14T16:29:47.685Z,23.05
2023-02-14T16:32:21.160Z,26.45
2023-02-14T16:34:49.959Z,25.73
2023-02-14T16:37:31.632Z,20.33
2023-02-14T16:40:01.716Z,20.48
2023-02-14T16:42:29.418Z,41.28
2023-02-14T16:44:57.780Z,51.17
2023-02-14T16:47:27.736Z,52.33
2023-02-14T16:49:55.665Z,42.38
2023-02-14T16:52:27.019Z,40.55
2023-02-14T16:54:55.019Z,47.75
2023-02-14T16:57:44.514Z,41.30
2023-02-14T17:00:13.465Z,36.05
2023-02-14T17:02:44.158Z,34.40
2023-02-14T17:05:12.547Z,37.50
2023-02-14T17:07:43.567Z,30.73
2023-02-14T17:10:18.045Z,29.90
2023-02-14T17:12:47.484Z,29.73
2023-02-14T17:15:18.794Z,31.00
2023-02-14T17:17:48.841Z,32.63
2023-02-14T17:20:19.924Z,32.40
2023-02-14T17:22:48.091Z,31.58
2023-02-14T17:25:16.013Z,30.67
2023-02-14T17:27:44.615Z,31.45
2023-02-14T17:30:14.591Z,29.65
2023-02-14T17:32:42.957Z,31.42
2023-02-14T17:35:11.959Z,29.27
2023-02-14T17:37:39.674Z,27.42
2023-02-14T17:40:08.660Z,26.65
2023-02-14T17:42:38.624Z,28.63
2023-02-14T17:45:07.363Z,29.30
2023-02-14T17:47:35.741Z,27.75
2023-02-14T17:50:03.940Z,27.55
2023-02-14T17:52:32.174Z,30.65
2023-02-14T17:55:00.258Z,28.63
2023-02-14T17:57:27.988Z,28.42
2023-02-14T17:59:58.114Z,28.50
2023-02-14T18:02:26.555Z,29.73
2023-02-14T18:04:55.219Z,31.92
2023-02-14T18:07:23.784Z,30.23
2023-02-14T18:09:51.904Z,30.38
2023-02-14T18:12:19.769Z,30.05
2023-02-14T18:14:47.692Z,29.35
2023-02-14T18:17:15.512Z,30.17
2023-02-14T18:19:43.443Z,31.30
2023-02-14T18:22:11.558Z,30.75
2023-02-14T18:24:39.491Z,31.83
2023-02-14T18:27:07.262Z,32.90
2023-02-14T18:29:36.382Z,32.60
2023-02-14T18:32:04.837Z,30.70
2023-02-14T18:34:35.775Z,32.17
2023-02-14T18:37:04.472Z,34.35
2023-02-14T18:39:32.958Z,31.95
2023-02-14T18:42:01.439Z,31.02
2023-02-14T18:44:29.562Z,32.97
2023-02-14T18:46:57.207Z,32.95
2023-02-14T18:49:24.983Z,33.35
2023-02-14T18:51:52.547Z,31.83
2023-02-14T18:54:20.408Z,32.28
2023-02-14T18:56:48.042Z,31.45
2023-02-14T18:59:16.868Z,32.15
2023-02-14T19:01:46.085Z,32.38
2023-02-14T19:04:14.381Z,33.65
2023-02-14T19:06:42.822Z,31.55
2023-02-14T19:09:13.656Z,31.80
2023-02-14T19:11:41.701Z,32.58
2023-02-14T19:14:10.612Z,31.65
2023-02-14T19:16:53.503Z,31.67
2023-02-14T19:19:22.842Z,34.80
2023-02-14T19:21:50.786Z,32.38
2023-02-14T19:24:19.850Z,33.15
2023-02-14T19:26:48.344Z,32.13
2023-02-14T19:29:18.268Z,31.90
2023-02-14T19:31:49.632Z,31.30
2023-02-14T19:34:24.039Z,33.28
2023-02-14T19:36:53.411Z,34.20
2023-02-14T19:39:23.068Z,31.25
2023-02-14T19:41:51.293Z,32.60
2023-02-14T19:44:19.433Z,30.30
2023-02-14T19:46:47.887Z,31.70
2023-02-14T19:49:20.594Z,32.35
2023-02-14T19:51:51.195Z,31.70
2023-02-14T19:54:19.642Z,31.75
2023-02-14T19:56:47.920Z,30.85
2023-02-14T19:59:20.341Z,32.00
2023-02-14T20:01:51.431Z,32.47
2023-02-14T20:04:23.356Z,34.10
2023-02-14T20:06:51.805Z,34.65
2023-02-14T20:09:23.517Z,32.55
2023-02-14T20:11:54.492Z,33.30
2023-02-14T20:14:40.934Z,31.77
2023-02-14T20:17:17.952Z,33.15
2023-02-14T20:19:45.828Z,34.67
2023-02-14T20:22:13.630Z,34.20
2023-02-14T20:24:41.607Z,33.22
2023-02-14T20:27:09.085Z,32.08
2023-02-14T20:29:39.052Z,32.55
2023-02-14T20:32:07.102Z,32.63
2023-02-14T20:34:35.392Z,33.08
2023-02-14T20:37:02.993Z,31.35
2023-02-14T20:39:35.061Z,31.13
2023-02-14T20:42:02.819Z,31.20
2023-02-14T20:44:31.124Z,32.15
2023-02-14T20:46:58.933Z,31.10
2023-02-14T20:49:28.552Z,31.48
2023-02-14T20:51:56.837Z,30.10
2023-02-14T20:54:26.764Z,32.30
2023-02-14T20:56:54.546Z,33.05
2023-02-14T20:59:28.911Z,35.75
2023-02-14T21:01:58.364Z,35.20
2023-02-14T21:04:26.872Z,40.72
2023-02-14T21:06:54.681Z,42.65
2023-02-14T21:09:22.572Z,40.05
2023-02-14T21:11:50.417Z,40.80
2023-02-14T21:14:18.276Z,37.13
2023-02-14T21:16:45.941Z,47.58
2023-02-14T21:19:13.806Z,49.92
2023-02-14T21:21:41.743Z,54.88
2023-02-14T21:24:15.314Z,50.70
2023-02-14T21:26:43.515Z,49.22
2023-02-14T21:29:11.797Z,45.75
2023-02-14T21:31:39.741Z,41.10
2023-02-14T21:34:07.675Z,38.75
2023-02-14T21:36:35.995Z,43.35
2023-02-14T21:39:05.169Z,42.58
2023-02-14T21:41:32.894Z,46.22
2023-02-14T21:44:02.078Z,41.58
2023-02-14T21:46:32.370Z,40.55
2023-02-14T21:49:23.968Z,38.60
2023-02-14T21:51:51.925Z,38.85
2023-02-14T21:54:19.796Z,40.95
2023-02-14T21:56:49.245Z,41.42
2023-02-14T21:59:17.408Z,42.05
2023-02-14T22:01:45.023Z,40.97
2023-02-14T22:04:13.507Z,45.60
2023-02-14T22:06:42.534Z,48.97
2023-02-14T22:09:12.798Z,41.45
2023-02-14T22:11:40.500Z,38.70
2023-02-14T22:14:08.713Z,38.22
2023-02-14T22:16:36.904Z,35.88
2023-02-14T22:19:06.005Z,34.45
2023-02-14T22:21:34.065Z,34.65
2023-02-14T22:24:02.078Z,35.28
2023-02-14T22:26:38.730Z,34.38
2023-02-14T22:29:08.111Z,34.35
2023-02-14T22:31:41.996Z,34.10
2023-02-14T22:34:13.720Z,34.65
2023-02-14T22:36:41.768Z,34.85
2023-02-14T22:39:10.713Z,33.92
2023-02-14T22:41:38.444Z,36.78
2023-02-14T22:44:07.201Z,35.30
2023-02-14T22:46:36.832Z,34.53
2023-02-14T22:49:05.908Z,34.80
2023-02-14T22:51:41.866Z,35.63
2023-02-14T22:54:15.315Z,36.97
2023-02-14T22:56:51.638Z,26.85
2023-02-14T22:59:23.113Z,35.63
2023-02-14T23:01:52.789Z,35.83
2023-02-14T23:04:22.801Z,37.10
2023-02-14T23:06:52.027Z,38.30
2023-02-14T23:09:20.440Z,38.20
2023-02-14T23:11:48.817Z,36.88
2023-02-14T23:14:36.753Z,36.17
2023-02-14T23:17:25.146Z,36.20
2023-02-14T23:20:11.596Z,36.78
2023-02-14T23:22:41.152Z,37.75
2023-02-14T23:25:11.983Z,38.80
2023-02-14T23:27:43.468Z,39.42
2023-02-14T23:30:14.795Z,37.22
2023-02-14T23:32:42.473Z,39.58
2023-02-14T23:35:10.386Z,38.90
2023-02-14T23:37:38.392Z,39.10
2023-02-14T23:40:07.195Z,37.58
2023-02-14T23:42:34.760Z,39.95
2023-02-14T23:45:21.357Z,37.85
2023-02-14T23:47:49.039Z,39.75
2023-02-14T23:50:17.260Z,37.35
2023-02-14T23:52:44.863Z,37.75
2023-02-14T23:55:13.072Z,36.95
2023-02-14T23:57:40.659Z,39.17
